ウィレムスタッド の空港の天気 - METARとTAF

キュラソー/ハト国際空港 ( TNCC / CUR ) - ウィレムスタッド (キュラソー島)
飛行場実況気象(Metar)
観測時間03/06 10:00 AST (03/06 14:00 UTC)
風向・風速東南東 9m/s 瞬間風速14m/s
視程10km以上
天気現象
少しの雲 雲底高度 610m
全天の8割程度の雲 雲底高度 1220m
気温28℃
湿度66%
気圧1014hPa
METARTNCC 061400Z 11017G27KT 9999 FEW020 BKN040 28/21 Q1014 NOSIG
過去の天気等 Google飛行場航空写真 Wunderground天気予報

過去48時間のMETAR

飛行場予報(TAF)
発表時間: 3/06 07:15 AST (3/06 11:15 UTC)
予報対象時間: 6日8時 AST ~ 7日8時 AST
風向・風速東南東 7m/s
視程10km以上
全天の4割程度の雲 雲底高度 610m
6日8時 AST ~ 6日14時 AST に 確率 40% で一時的に
視程6000m
天気現象しゅう雨
全天の8割程度の雲 雲底高度 430m
TAF TNCC 061115Z 0612/0712 11014KT 9999 SCT020
PROB40 TEMPO 0612/0618 6000 SHRA BKN014